Tupassi, Brazil
Current Conditions -  °F | °C
As of 6:00 PM on Friday 19 Dec 2014 (Local Time) from SBCA Reporting Station
Broken Clouds Broken Clouds  
Wind Chill: 82°   Ceiling: 3000
Heat Index: 82°   Visibility: 6mi
Dew Point: 57°   Wind: 12mph
Humidity: 42%   Direction: 250°WSW
Pressure: 29.77"   Gusts: NA
Location:  24.59°S, 53.51°W
Report Text: SBCA 192000Z 25010KT 9999 BKN030 28/14 Q1008
Loading
Personal Weather Stations






























Interactive Weather Map New forecast layout! Learn more

10-Day Weather Forecast

Advertisements
Track Severe Weather on mobile